ROA267 SCEL-SCCI
Flight info
| Callsign | ROA267 |
|---|---|
| Flight time | 3h 22m |
| Altitude | 33000 |
| Route | LINER6C LINER UQ805 TIGNO UQ803 NEDAX NEDAX3E |
| Aircraft | A321/M-SDE3FGHIRWY/LB1 |
Departure
| Time | 2026-04-23 02:08 |
|---|---|
| Airport | Comodoro Arturo Merino Benítez International Airport (SCEL) |
Arrival
| Time | 2026-04-23 05:31 |
|---|---|
| Airport | President Carlos Ibáñez International Airport (SCCI) |
| Time | Latitude | Longitude | Altitude | Speed | Heading |
|---|---|---|---|---|---|
| 2026-04-23 02:03 | -33.38757 | -70.80093 | 1576 ft | 10 kts | 2° |
| 2026-04-23 02:03 | -33.38659 | -70.80091 | 1577 ft | 19 kts | 0° |
| 2026-04-23 02:03 | -33.38510 | -70.80099 | 1578 ft | 22 kts | 356° |
| 2026-04-23 02:03 | -33.38362 | -70.80110 | 1577 ft | 21 kts | 355° |
| 2026-04-23 02:04 | -33.38222 | -70.80116 | 1578 ft | 19 kts | 359° |
| 2026-04-23 02:04 | -33.38099 | -70.80123 | 1578 ft | 17 kts | 358° |
| 2026-04-23 02:04 | -33.37984 | -70.80128 | 1578 ft | 16 kts | 358° |
| 2026-04-23 02:04 | -33.37851 | -70.80135 | 1577 ft | 20 kts | 358° |
| 2026-04-23 02:05 | -33.37718 | -70.80142 | 1580 ft | 18 kts | 356° |
| 2026-04-23 02:05 | -33.37597 | -70.80148 | 1578 ft | 16 kts | 358° |
| 2026-04-23 02:05 | -33.37484 | -70.80155 | 1579 ft | 18 kts | 356° |
| 2026-04-23 02:05 | -33.37334 | -70.80173 | 1580 ft | 24 kts | 357° |
| 2026-04-23 02:06 | -33.37211 | -70.80176 | 1580 ft | 10 kts | 359° |
| 2026-04-23 02:06 | -33.37147 | -70.80187 | 1579 ft | 9 kts | 336° |
| 2026-04-23 02:06 | -33.37108 | -70.80235 | 1568 ft | 7 kts | 296° |
| 2026-04-23 02:06 | -33.37105 | -70.80303 | 1572 ft | 8 kts | 255° |
| 2026-04-23 02:07 | -33.37128 | -70.80345 | 1574 ft | 6 kts | 225° |
| 2026-04-23 02:07 | -33.37198 | -70.80373 | 1573 ft | 18 kts | 181° |
| 2026-04-23 02:07 | -33.37482 | -70.80359 | 1574 ft | 72 kts | 178° |
| 2026-04-23 02:07 | -33.38189 | -70.80322 | 1572 ft | 128 kts | 177° |
| 2026-04-23 02:08 | -33.39238 | -70.80264 | 1573 ft | 172 kts | 177° |
| 2026-04-23 02:08 | -33.40541 | -70.80171 | 1933 ft | 183 kts | 176° |
| 2026-04-23 02:08 | -33.41813 | -70.80093 | 2625 ft | 183 kts | 177° |
| 2026-04-23 02:08 | -33.43117 | -70.80036 | 2974 ft | 195 kts | 178° |
| 2026-04-23 02:09 | -33.44560 | -70.79972 | 3135 ft | 214 kts | 177° |
| 2026-04-23 02:09 | -33.46111 | -70.79894 | 3253 ft | 233 kts | 177° |
| 2026-04-23 02:09 | -33.47801 | -70.79803 | 3412 ft | 254 kts | 177° |
| 2026-04-23 02:09 | -33.49605 | -70.79704 | 3910 ft | 263 kts | 176° |
| 2026-04-23 02:10 | -33.51447 | -70.79604 | 4529 ft | 267 kts | 176° |
| 2026-04-23 02:10 | -33.53319 | -70.79501 | 5141 ft | 271 kts | 176° |
| 2026-04-23 02:10 | -33.55211 | -70.79350 | 5744 ft | 274 kts | 175° |
| 2026-04-23 02:10 | -33.57129 | -70.79143 | 6362 ft | 278 kts | 174° |
| 2026-04-23 02:11 | -33.59065 | -70.78917 | 6953 ft | 281 kts | 174° |
| 2026-04-23 02:11 | -33.61019 | -70.78688 | 7513 ft | 284 kts | 174° |
| 2026-04-23 02:11 | -33.62997 | -70.78459 | 8089 ft | 287 kts | 175° |
| 2026-04-23 02:11 | -33.65001 | -70.78231 | 8676 ft | 291 kts | 175° |
| 2026-04-23 02:12 | -33.67027 | -70.78004 | 9234 ft | 294 kts | 175° |
| 2026-04-23 02:12 | -33.69079 | -70.77776 | 9803 ft | 297 kts | 175° |
| 2026-04-23 02:12 | -33.71128 | -70.77550 | 10272 ft | 304 kts | 175° |
| 2026-04-23 02:12 | -33.73290 | -70.77314 | 10447 ft | 321 kts | 175° |
| 2026-04-23 02:13 | -33.75575 | -70.77069 | 10567 ft | 339 kts | 175° |
| 2026-04-23 02:13 | -33.77980 | -70.76813 | 10696 ft | 356 kts | 175° |
| 2026-04-23 02:13 | -33.80505 | -70.76542 | 10870 ft | 370 kts | 175° |
| 2026-04-23 02:13 | -33.83094 | -70.76264 | 11315 ft | 375 kts | 175° |
| 2026-04-23 02:14 | -33.85705 | -70.75979 | 11827 ft | 379 kts | 175° |
| 2026-04-23 02:14 | -33.88347 | -70.75689 | 12355 ft | 382 kts | 176° |
| 2026-04-23 02:14 | -33.91000 | -70.75401 | 12891 ft | 384 kts | 176° |
| 2026-04-23 02:14 | -33.93682 | -70.75418 | 13418 ft | 386 kts | 187° |
| 2026-04-23 02:15 | -33.99030 | -70.76300 | 14418 ft | 390 kts | 190° |
| 2026-04-23 02:15 | -34.01729 | -70.76760 | 14878 ft | 393 kts | 190° |
| 2026-04-23 02:15 | -34.04441 | -70.77222 | 15337 ft | 395 kts | 190° |
| 2026-04-23 02:16 | -34.07172 | -70.77686 | 15781 ft | 397 kts | 190° |
| 2026-04-23 02:16 | -34.09920 | -70.78152 | 16247 ft | 399 kts | 190° |
| 2026-04-23 02:16 | -34.12677 | -70.78618 | 16699 ft | 401 kts | 190° |
| 2026-04-23 02:16 | -34.15448 | -70.79082 | 17141 ft | 404 kts | 191° |
| 2026-04-23 02:17 | -34.18242 | -70.79552 | 17602 ft | 406 kts | 191° |
| 2026-04-23 02:17 | -34.21050 | -70.80026 | 18032 ft | 408 kts | 191° |
| 2026-04-23 02:17 | -34.23856 | -70.80501 | 18458 ft | 410 kts | 191° |
| 2026-04-23 02:17 | -34.26697 | -70.80981 | 18841 ft | 412 kts | 191° |
| 2026-04-23 02:18 | -34.29544 | -70.81461 | 19216 ft | 414 kts | 191° |
| 2026-04-23 02:18 | -34.32400 | -70.81945 | 19587 ft | 415 kts | 191° |
| 2026-04-23 02:18 | -34.35273 | -70.82435 | 19964 ft | 417 kts | 191° |
| 2026-04-23 02:18 | -34.38149 | -70.82926 | 20338 ft | 419 kts | 191° |
| 2026-04-23 02:19 | -34.41050 | -70.83417 | 20707 ft | 421 kts | 191° |
| 2026-04-23 02:19 | -34.43954 | -70.83908 | 21076 ft | 422 kts | 191° |
| 2026-04-23 02:19 | -34.46872 | -70.84404 | 21439 ft | 424 kts | 191° |
| 2026-04-23 02:19 | -34.48814 | -70.84734 | 21682 ft | 425 kts | 191° |
| 2026-04-23 02:20 | -34.52705 | -70.85398 | 22190 ft | 427 kts | 191° |
| 2026-04-23 02:20 | -34.55657 | -70.85904 | 22566 ft | 429 kts | 191° |
| 2026-04-23 02:20 | -34.58616 | -70.86410 | 22915 ft | 431 kts | 191° |
| 2026-04-23 02:20 | -34.60628 | -70.86754 | 23153 ft | 432 kts | 191° |
| 2026-04-23 02:21 | -34.63616 | -70.87265 | 23501 ft | 434 kts | 191° |
| 2026-04-23 02:21 | -34.66609 | -70.87778 | 23828 ft | 436 kts | 192° |
| 2026-04-23 02:21 | -34.70605 | -70.88464 | 24205 ft | 438 kts | 192° |
| 2026-04-23 02:21 | -34.72651 | -70.88815 | 24391 ft | 440 kts | 191° |
| 2026-04-23 02:22 | -34.75682 | -70.89334 | 24663 ft | 441 kts | 192° |
| 2026-04-23 02:22 | -34.78731 | -70.89855 | 24935 ft | 443 kts | 192° |
| 2026-04-23 02:22 | -34.81800 | -70.90377 | 25212 ft | 445 kts | 192° |
| 2026-04-23 02:22 | -34.84865 | -70.90897 | 25486 ft | 447 kts | 192° |
| 2026-04-23 02:23 | -34.87957 | -70.91422 | 25754 ft | 449 kts | 192° |
| 2026-04-23 02:23 | -34.91094 | -70.91958 | 26028 ft | 451 kts | 192° |
| 2026-04-23 02:23 | -34.94212 | -70.92496 | 26275 ft | 452 kts | 192° |
| 2026-04-23 02:23 | -34.97332 | -70.93037 | 26527 ft | 454 kts | 192° |
| 2026-04-23 02:24 | -35.00469 | -70.93581 | 26762 ft | 456 kts | 192° |
| 2026-04-23 02:24 | -35.03656 | -70.94132 | 27003 ft | 457 kts | 192° |
| 2026-04-23 02:24 | -35.06770 | -70.94668 | 27258 ft | 459 kts | 192° |
| 2026-04-23 02:24 | -35.09977 | -70.95222 | 27507 ft | 460 kts | 192° |
| 2026-04-23 02:25 | -35.13193 | -70.95781 | 27768 ft | 462 kts | 192° |
| 2026-04-23 02:25 | -35.16384 | -70.96334 | 28095 ft | 462 kts | 192° |
| 2026-04-23 02:25 | -35.19554 | -70.96880 | 28450 ft | 460 kts | 192° |
| 2026-04-23 02:25 | -35.22729 | -70.97424 | 28801 ft | 460 kts | 192° |
| 2026-04-23 02:26 | -35.25889 | -70.97969 | 29147 ft | 459 kts | 193° |
| 2026-04-23 02:26 | -35.29052 | -70.98520 | 29446 ft | 458 kts | 193° |
| 2026-04-23 02:26 | -35.32202 | -70.99068 | 29768 ft | 458 kts | 193° |
| 2026-04-23 02:26 | -35.35353 | -70.99618 | 30075 ft | 457 kts | 193° |
| 2026-04-23 02:27 | -35.38504 | -71.00166 | 30372 ft | 456 kts | 193° |
| 2026-04-23 02:27 | -35.41647 | -71.00711 | 30647 ft | 455 kts | 193° |
| 2026-04-23 02:27 | -35.44789 | -71.01257 | 30912 ft | 455 kts | 193° |
| 2026-04-23 02:27 | -35.47923 | -71.01801 | 31177 ft | 455 kts | 193° |
| 2026-04-23 02:28 | -35.51053 | -71.02345 | 31425 ft | 454 kts | 193° |
| 2026-04-23 02:28 | -35.54186 | -71.02893 | 31688 ft | 454 kts | 193° |
| 2026-04-23 02:28 | -35.57310 | -71.03443 | 31917 ft | 453 kts | 193° |
| 2026-04-23 02:28 | -35.60434 | -71.03993 | 32126 ft | 453 kts | 193° |
| 2026-04-23 02:29 | -35.63602 | -71.04550 | 32400 ft | 453 kts | 193° |
| 2026-04-23 02:29 | -35.66720 | -71.05096 | 32632 ft | 453 kts | 193° |
| 2026-04-23 02:29 | -35.69840 | -71.05642 | 32867 ft | 452 kts | 193° |
| 2026-04-23 02:29 | -35.72958 | -71.06186 | 33115 ft | 452 kts | 193° |
| 2026-04-23 02:30 | -35.76072 | -71.06730 | 33228 ft | 453 kts | 193° |
| 2026-04-23 02:30 | -35.82312 | -71.07834 | 33236 ft | 452 kts | 193° |
| 2026-04-23 02:31 | -35.88531 | -71.08932 | 33241 ft | 452 kts | 193° |
| 2026-04-23 02:31 | -35.94754 | -71.10027 | 33246 ft | 451 kts | 193° |
| 2026-04-23 02:32 | -36.00956 | -71.11123 | 33247 ft | 451 kts | 193° |
| 2026-04-23 02:32 | -36.07187 | -71.12226 | 33259 ft | 452 kts | 193° |
| 2026-04-23 02:33 | -36.13402 | -71.13324 | 33257 ft | 451 kts | 193° |
| 2026-04-23 02:33 | -36.19608 | -71.14424 | 33260 ft | 450 kts | 193° |
| 2026-04-23 02:34 | -36.25810 | -71.15532 | 33260 ft | 450 kts | 193° |
| 2026-04-23 02:34 | -36.32008 | -71.16639 | 33256 ft | 449 kts | 193° |
| 2026-04-23 02:35 | -36.38213 | -71.17751 | 33230 ft | 451 kts | 193° |
| 2026-04-23 02:35 | -36.44483 | -71.18874 | 33233 ft | 453 kts | 193° |
| 2026-04-23 02:36 | -36.50692 | -71.19982 | 33237 ft | 454 kts | 193° |
| 2026-04-23 02:36 | -36.56990 | -71.21105 | 33246 ft | 454 kts | 193° |
| 2026-04-23 02:37 | -36.63260 | -71.22234 | 33255 ft | 455 kts | 193° |
| 2026-04-23 02:37 | -36.69534 | -71.23366 | 33268 ft | 455 kts | 193° |
| 2026-04-23 02:38 | -36.75844 | -71.24502 | 33266 ft | 454 kts | 193° |
| 2026-04-23 02:38 | -36.82103 | -71.25627 | 33277 ft | 454 kts | 193° |
| 2026-04-23 02:39 | -36.88361 | -71.26753 | 33282 ft | 454 kts | 193° |
| 2026-04-23 02:39 | -36.94599 | -71.27884 | 33280 ft | 453 kts | 193° |
| 2026-04-23 02:40 | -37.00840 | -71.29023 | 33281 ft | 453 kts | 193° |
| 2026-04-23 02:40 | -37.07072 | -71.30159 | 33282 ft | 452 kts | 193° |
| 2026-04-23 02:41 | -37.13301 | -71.31297 | 33286 ft | 451 kts | 193° |
| 2026-04-23 02:41 | -37.19521 | -71.32431 | 33283 ft | 451 kts | 193° |
| 2026-04-23 02:42 | -37.25732 | -71.33564 | 33286 ft | 451 kts | 193° |
| 2026-04-23 02:42 | -37.31948 | -71.34701 | 33288 ft | 451 kts | 193° |
| 2026-04-23 02:43 | -37.38163 | -71.35835 | 33298 ft | 450 kts | 193° |
| 2026-04-23 02:43 | -37.44364 | -71.36979 | 33294 ft | 450 kts | 193° |
| 2026-04-23 02:44 | -37.49512 | -71.37929 | 33299 ft | 450 kts | 193° |
| 2026-04-23 02:44 | -37.56749 | -71.39250 | 33306 ft | 450 kts | 193° |
| 2026-04-23 02:45 | -37.61901 | -71.40192 | 33316 ft | 450 kts | 193° |
| 2026-04-23 02:45 | -37.68093 | -71.41335 | 33320 ft | 449 kts | 193° |
| 2026-04-23 02:46 | -37.74282 | -71.42490 | 33328 ft | 449 kts | 193° |
| 2026-04-23 02:46 | -37.80469 | -71.43638 | 33339 ft | 450 kts | 193° |
| 2026-04-23 02:47 | -37.86657 | -71.44785 | 33349 ft | 449 kts | 193° |
| 2026-04-23 02:47 | -37.92842 | -71.45941 | 33361 ft | 449 kts | 193° |
| 2026-04-23 02:48 | -37.99029 | -71.47092 | 33370 ft | 449 kts | 193° |
| 2026-04-23 02:48 | -38.05197 | -71.48248 | 33371 ft | 448 kts | 193° |
| 2026-04-23 02:49 | -38.11382 | -71.49405 | 33345 ft | 449 kts | 193° |
| 2026-04-23 02:49 | -38.17579 | -71.50565 | 33347 ft | 451 kts | 193° |
| 2026-04-23 02:50 | -38.23802 | -71.51734 | 33353 ft | 452 kts | 193° |
| 2026-04-23 02:50 | -38.30023 | -71.52897 | 33361 ft | 452 kts | 193° |
| 2026-04-23 02:51 | -38.36259 | -71.54070 | 33369 ft | 453 kts | 193° |
| 2026-04-23 02:51 | -38.42496 | -71.55248 | 33372 ft | 453 kts | 193° |
| 2026-04-23 02:52 | -38.48727 | -71.56426 | 33380 ft | 453 kts | 193° |
| 2026-04-23 02:52 | -38.54957 | -71.57609 | 33378 ft | 452 kts | 193° |
| 2026-04-23 02:53 | -38.61175 | -71.58793 | 33378 ft | 452 kts | 193° |
| 2026-04-23 02:53 | -38.67401 | -71.59967 | 33383 ft | 452 kts | 193° |
| 2026-04-23 02:54 | -38.73459 | -71.61112 | 33384 ft | 451 kts | 193° |
| 2026-04-23 02:54 | -38.79404 | -71.62288 | 33380 ft | 450 kts | 193° |
| 2026-04-23 02:55 | -38.85615 | -71.63462 | 33379 ft | 450 kts | 193° |
| 2026-04-23 02:55 | -38.91806 | -71.64628 | 33371 ft | 449 kts | 193° |
| 2026-04-23 02:56 | -38.97996 | -71.65804 | 33362 ft | 449 kts | 193° |
| 2026-04-23 02:56 | -39.04177 | -71.66986 | 33360 ft | 448 kts | 193° |
| 2026-04-23 02:57 | -39.10354 | -71.68175 | 33358 ft | 448 kts | 193° |
| 2026-04-23 02:57 | -39.16524 | -71.69370 | 33359 ft | 448 kts | 193° |
| 2026-04-23 02:58 | -39.22686 | -71.70563 | 33358 ft | 448 kts | 193° |
| 2026-04-23 02:58 | -39.28851 | -71.71754 | 33357 ft | 447 kts | 192° |
| 2026-04-23 02:59 | -39.35005 | -71.72940 | 33357 ft | 447 kts | 192° |
| 2026-04-23 02:59 | -39.41123 | -71.74123 | 33357 ft | 447 kts | 192° |
| 2026-04-23 03:00 | -39.47286 | -71.75326 | 33355 ft | 447 kts | 192° |
| 2026-04-23 03:00 | -39.53444 | -71.76537 | 33348 ft | 447 kts | 192° |
| 2026-04-23 03:01 | -39.59606 | -71.77734 | 33353 ft | 447 kts | 192° |
| 2026-04-23 03:01 | -39.65736 | -71.78936 | 33355 ft | 447 kts | 192° |
| 2026-04-23 03:02 | -39.71864 | -71.80133 | 33354 ft | 447 kts | 192° |
| 2026-04-23 03:02 | -39.78062 | -71.81343 | 33351 ft | 447 kts | 192° |
| 2026-04-23 03:03 | -39.84214 | -71.82542 | 33349 ft | 447 kts | 192° |
| 2026-04-23 03:03 | -39.90371 | -71.83749 | 33346 ft | 447 kts | 192° |
| 2026-04-23 03:04 | -39.96531 | -71.84969 | 33338 ft | 447 kts | 192° |
| 2026-04-23 03:04 | -40.02685 | -71.86190 | 33341 ft | 448 kts | 192° |
| 2026-04-23 03:05 | -40.08847 | -71.87403 | 33343 ft | 448 kts | 192° |
| 2026-04-23 03:05 | -40.15009 | -71.88623 | 33339 ft | 448 kts | 192° |
| 2026-04-23 03:06 | -40.20878 | -71.89795 | 33330 ft | 448 kts | 192° |
| 2026-04-23 03:06 | -40.27038 | -71.91024 | 33317 ft | 448 kts | 192° |
| 2026-04-23 03:07 | -40.33208 | -71.92261 | 33313 ft | 448 kts | 192° |
| 2026-04-23 03:07 | -40.39367 | -71.93496 | 33307 ft | 448 kts | 192° |
| 2026-04-23 03:08 | -40.45538 | -71.94727 | 33310 ft | 449 kts | 192° |
| 2026-04-23 03:08 | -40.51724 | -71.95972 | 33300 ft | 449 kts | 192° |
| 2026-04-23 03:09 | -40.57934 | -71.97225 | 33293 ft | 449 kts | 192° |
| 2026-04-23 03:09 | -40.64120 | -71.98456 | 33292 ft | 449 kts | 192° |
| 2026-04-23 03:10 | -40.70292 | -71.99692 | 33293 ft | 449 kts | 192° |
| 2026-04-23 03:10 | -40.76517 | -72.00949 | 33279 ft | 450 kts | 192° |
| 2026-04-23 03:11 | -40.82718 | -72.02200 | 33275 ft | 450 kts | 192° |
| 2026-04-23 03:11 | -40.88917 | -72.03450 | 33278 ft | 451 kts | 192° |
| 2026-04-23 03:12 | -40.95132 | -72.04707 | 33270 ft | 451 kts | 192° |
| 2026-04-23 03:12 | -41.01343 | -72.05980 | 33272 ft | 452 kts | 192° |
| 2026-04-23 03:13 | -41.07634 | -72.07270 | 33301 ft | 451 kts | 192° |
| 2026-04-23 03:13 | -41.12795 | -72.08323 | 33304 ft | 450 kts | 192° |
| 2026-04-23 03:14 | -41.19997 | -72.09801 | 33304 ft | 450 kts | 192° |
| 2026-04-23 03:14 | -41.25180 | -72.10855 | 33299 ft | 449 kts | 192° |
| 2026-04-23 03:15 | -41.31370 | -72.12071 | 33283 ft | 450 kts | 191° |
| 2026-04-23 03:15 | -41.37600 | -72.13038 | 33288 ft | 450 kts | 190° |
| 2026-04-23 03:16 | -41.43836 | -72.13925 | 33285 ft | 450 kts | 190° |
| 2026-04-23 03:16 | -41.53172 | -72.15346 | 33269 ft | 450 kts | 191° |
| 2026-04-23 03:17 | -41.59395 | -72.16346 | 33264 ft | 450 kts | 191° |
| 2026-04-23 03:17 | -41.65615 | -72.17328 | 33251 ft | 450 kts | 191° |
| 2026-04-23 03:18 | -41.71829 | -72.18298 | 33248 ft | 450 kts | 191° |
| 2026-04-23 03:18 | -41.78046 | -72.19266 | 33243 ft | 450 kts | 192° |
| 2026-04-23 03:19 | -41.84264 | -72.20234 | 33238 ft | 449 kts | 192° |
| 2026-04-23 03:19 | -41.90473 | -72.21220 | 33239 ft | 449 kts | 192° |
| 2026-04-23 03:20 | -41.96685 | -72.22214 | 33239 ft | 449 kts | 192° |
| 2026-04-23 03:20 | -42.02892 | -72.23196 | 33237 ft | 449 kts | 192° |
| 2026-04-23 03:21 | -42.09100 | -72.24181 | 33240 ft | 449 kts | 192° |
| 2026-04-23 03:21 | -42.15301 | -72.25168 | 33232 ft | 449 kts | 193° |
| 2026-04-23 03:22 | -42.21511 | -72.26155 | 33232 ft | 449 kts | 193° |
| 2026-04-23 03:22 | -42.27721 | -72.27147 | 33229 ft | 449 kts | 193° |
| 2026-04-23 03:23 | -42.33923 | -72.28133 | 33228 ft | 448 kts | 193° |
| 2026-04-23 03:23 | -42.40108 | -72.29116 | 33219 ft | 448 kts | 193° |
| 2026-04-23 03:24 | -42.46298 | -72.30111 | 33214 ft | 448 kts | 193° |
| 2026-04-23 03:24 | -42.52479 | -72.31101 | 33210 ft | 447 kts | 193° |
| 2026-04-23 03:25 | -42.58660 | -72.32097 | 33204 ft | 447 kts | 194° |
| 2026-04-23 03:25 | -42.64838 | -72.33100 | 33202 ft | 446 kts | 194° |
| 2026-04-23 03:26 | -42.71004 | -72.34098 | 33198 ft | 446 kts | 194° |
| 2026-04-23 03:26 | -42.77174 | -72.35101 | 33192 ft | 446 kts | 194° |
| 2026-04-23 03:27 | -42.83339 | -72.36106 | 33179 ft | 446 kts | 194° |
| 2026-04-23 03:27 | -42.89504 | -72.37103 | 33179 ft | 446 kts | 194° |
| 2026-04-23 03:28 | -42.95660 | -72.38100 | 33180 ft | 446 kts | 194° |
| 2026-04-23 03:28 | -43.01815 | -72.39110 | 33167 ft | 445 kts | 194° |
| 2026-04-23 03:29 | -43.07927 | -72.40109 | 33168 ft | 445 kts | 195° |
| 2026-04-23 03:29 | -43.14090 | -72.41121 | 33160 ft | 445 kts | 195° |
| 2026-04-23 03:30 | -43.20243 | -72.42136 | 33163 ft | 445 kts | 195° |
| 2026-04-23 03:30 | -43.26386 | -72.43142 | 33152 ft | 444 kts | 194° |
| 2026-04-23 03:31 | -43.32514 | -72.44153 | 33139 ft | 443 kts | 195° |
| 2026-04-23 03:31 | -43.38642 | -72.45167 | 33142 ft | 444 kts | 195° |
| 2026-04-23 03:32 | -43.44774 | -72.46201 | 33135 ft | 444 kts | 195° |
| 2026-04-23 03:32 | -43.50907 | -72.47231 | 33127 ft | 444 kts | 195° |
| 2026-04-23 03:33 | -43.57049 | -72.48257 | 33130 ft | 445 kts | 195° |
| 2026-04-23 03:33 | -43.63196 | -72.49278 | 33129 ft | 445 kts | 195° |
| 2026-04-23 03:34 | -43.69345 | -72.50300 | 33136 ft | 444 kts | 195° |
| 2026-04-23 03:34 | -43.75484 | -72.51321 | 33137 ft | 444 kts | 195° |
| 2026-04-23 03:35 | -43.81608 | -72.52356 | 33124 ft | 443 kts | 195° |
| 2026-04-23 03:35 | -43.87684 | -72.53383 | 33110 ft | 443 kts | 195° |
| 2026-04-23 03:36 | -43.93799 | -72.54409 | 33103 ft | 442 kts | 195° |
| 2026-04-23 03:36 | -43.99908 | -72.55441 | 33102 ft | 442 kts | 196° |
| 2026-04-23 03:37 | -44.06014 | -72.56483 | 33101 ft | 442 kts | 196° |
| 2026-04-23 03:37 | -44.12121 | -72.57517 | 33097 ft | 442 kts | 196° |
| 2026-04-23 03:38 | -44.18227 | -72.58536 | 33090 ft | 441 kts | 196° |
| 2026-04-23 03:38 | -44.24323 | -72.59563 | 33084 ft | 441 kts | 196° |
| 2026-04-23 03:39 | -44.30410 | -72.60604 | 33077 ft | 441 kts | 197° |
| 2026-04-23 03:39 | -44.36503 | -72.61649 | 33071 ft | 440 kts | 196° |
| 2026-04-23 03:40 | -44.42591 | -72.62690 | 33059 ft | 440 kts | 197° |
| 2026-04-23 03:40 | -44.48672 | -72.63735 | 33055 ft | 440 kts | 197° |
| 2026-04-23 03:41 | -44.54716 | -72.64781 | 33048 ft | 440 kts | 197° |
| 2026-04-23 03:41 | -44.60801 | -72.65829 | 33045 ft | 441 kts | 197° |
| 2026-04-23 03:42 | -44.66889 | -72.66873 | 33045 ft | 440 kts | 197° |
| 2026-04-23 03:42 | -44.73010 | -72.67928 | 33041 ft | 440 kts | 197° |
| 2026-04-23 03:43 | -44.79047 | -72.68976 | 33034 ft | 440 kts | 197° |
| 2026-04-23 03:43 | -44.85120 | -72.70040 | 33035 ft | 440 kts | 197° |
| 2026-04-23 03:44 | -44.91195 | -72.71105 | 33022 ft | 440 kts | 197° |
| 2026-04-23 03:44 | -44.97275 | -72.72163 | 33019 ft | 439 kts | 198° |
| 2026-04-23 03:45 | -45.03340 | -72.73214 | 33019 ft | 439 kts | 198° |
| 2026-04-23 03:45 | -45.09406 | -72.74269 | 32998 ft | 438 kts | 198° |
| 2026-04-23 03:46 | -45.15456 | -72.75336 | 32978 ft | 438 kts | 198° |
| 2026-04-23 03:46 | -45.21514 | -72.76412 | 32978 ft | 440 kts | 198° |
| 2026-04-23 03:47 | -45.27588 | -72.77483 | 32968 ft | 440 kts | 198° |
| 2026-04-23 03:47 | -45.33663 | -72.78549 | 32968 ft | 440 kts | 198° |
| 2026-04-23 03:48 | -45.39739 | -72.79627 | 32960 ft | 440 kts | 198° |
| 2026-04-23 03:48 | -45.45813 | -72.80703 | 32952 ft | 440 kts | 198° |
| 2026-04-23 03:49 | -45.51848 | -72.81779 | 32950 ft | 440 kts | 199° |
| 2026-04-23 03:49 | -45.57934 | -72.82860 | 32939 ft | 441 kts | 199° |
| 2026-04-23 03:50 | -45.64012 | -72.83946 | 32930 ft | 440 kts | 199° |
| 2026-04-23 03:50 | -45.70092 | -72.85039 | 32922 ft | 440 kts | 199° |
| 2026-04-23 03:51 | -45.76178 | -72.86131 | 32925 ft | 441 kts | 199° |
| 2026-04-23 03:51 | -45.82269 | -72.87220 | 32907 ft | 441 kts | 199° |
| 2026-04-23 03:52 | -45.88359 | -72.88316 | 32897 ft | 441 kts | 199° |
| 2026-04-23 03:52 | -45.94445 | -72.89418 | 32876 ft | 441 kts | 199° |
| 2026-04-23 03:53 | -45.99503 | -72.90334 | 32877 ft | 441 kts | 199° |
| 2026-04-23 03:53 | -46.05592 | -72.91441 | 32871 ft | 441 kts | 199° |
| 2026-04-23 03:54 | -46.11686 | -72.92548 | 32867 ft | 442 kts | 199° |
| 2026-04-23 03:54 | -46.17791 | -72.93661 | 32874 ft | 442 kts | 199° |
| 2026-04-23 03:55 | -46.23901 | -72.94765 | 32844 ft | 442 kts | 199° |
| 2026-04-23 03:55 | -46.30011 | -72.95889 | 32827 ft | 443 kts | 199° |
| 2026-04-23 03:56 | -46.36126 | -72.97019 | 32819 ft | 443 kts | 199° |
| 2026-04-23 03:56 | -46.42254 | -72.98144 | 32821 ft | 444 kts | 199° |
| 2026-04-23 03:57 | -46.48382 | -72.99267 | 32810 ft | 444 kts | 199° |
| 2026-04-23 03:57 | -46.54510 | -73.00393 | 32817 ft | 444 kts | 199° |
| 2026-04-23 03:58 | -46.60645 | -73.01537 | 32808 ft | 444 kts | 199° |
| 2026-04-23 03:58 | -46.66768 | -73.02674 | 32800 ft | 444 kts | 199° |
| 2026-04-23 03:59 | -46.72889 | -73.03819 | 32796 ft | 444 kts | 199° |
| 2026-04-23 03:59 | -46.79015 | -73.04960 | 32789 ft | 443 kts | 199° |
| 2026-04-23 04:00 | -46.85228 | -73.06108 | 32786 ft | 443 kts | 199° |
| 2026-04-23 04:00 | -46.91352 | -73.07251 | 32759 ft | 442 kts | 199° |
| 2026-04-23 04:01 | -46.97390 | -73.08382 | 32761 ft | 430 kts | 199° |
| 2026-04-23 04:01 | -47.03405 | -73.09562 | 32752 ft | 442 kts | 199° |
| 2026-04-23 04:02 | -47.09545 | -73.10741 | 32758 ft | 446 kts | 198° |
| 2026-04-23 04:02 | -47.15727 | -73.11888 | 32750 ft | 447 kts | 198° |
| 2026-04-23 04:03 | -47.21917 | -73.13053 | 32739 ft | 447 kts | 199° |
| 2026-04-23 04:03 | -47.28103 | -73.14232 | 32748 ft | 447 kts | 199° |
| 2026-04-23 04:04 | -47.34281 | -73.15416 | 32757 ft | 447 kts | 199° |
| 2026-04-23 04:04 | -47.40401 | -73.16580 | 32754 ft | 447 kts | 199° |
| 2026-04-23 04:05 | -47.46585 | -73.17776 | 32737 ft | 446 kts | 199° |
| 2026-04-23 04:05 | -47.52763 | -73.18962 | 32745 ft | 448 kts | 198° |
| 2026-04-23 04:06 | -47.58934 | -73.20153 | 32737 ft | 447 kts | 199° |
| 2026-04-23 04:06 | -47.65124 | -73.21353 | 32739 ft | 448 kts | 198° |
| 2026-04-23 04:07 | -47.71302 | -73.22534 | 32721 ft | 448 kts | 198° |
| 2026-04-23 04:07 | -47.77499 | -73.23727 | 32728 ft | 449 kts | 198° |
| 2026-04-23 04:08 | -47.83684 | -73.24938 | 32719 ft | 448 kts | 198° |
| 2026-04-23 04:08 | -47.89861 | -73.26155 | 32708 ft | 448 kts | 198° |
| 2026-04-23 04:09 | -47.96052 | -73.27363 | 32698 ft | 449 kts | 198° |
| 2026-04-23 04:09 | -48.02255 | -73.28573 | 32686 ft | 449 kts | 198° |
| 2026-04-23 04:10 | -48.08450 | -73.29787 | 32674 ft | 450 kts | 198° |
| 2026-04-23 04:10 | -48.14677 | -73.31015 | 32666 ft | 451 kts | 198° |
| 2026-04-23 04:11 | -48.20915 | -73.32241 | 32657 ft | 452 kts | 198° |
| 2026-04-23 04:11 | -48.27150 | -73.33473 | 32646 ft | 453 kts | 198° |
| 2026-04-23 04:12 | -48.33449 | -73.34721 | 32632 ft | 454 kts | 198° |
| 2026-04-23 04:12 | -48.39727 | -73.35966 | 32633 ft | 455 kts | 198° |
| 2026-04-23 04:13 | -48.46010 | -73.37216 | 32636 ft | 455 kts | 198° |
| 2026-04-23 04:13 | -48.52298 | -73.38462 | 32645 ft | 455 kts | 198° |
| 2026-04-23 04:14 | -48.58574 | -73.39721 | 32644 ft | 455 kts | 199° |
| 2026-04-23 04:14 | -48.64853 | -73.40995 | 32632 ft | 454 kts | 199° |
| 2026-04-23 04:15 | -48.71156 | -73.42276 | 32627 ft | 454 kts | 198° |
| 2026-04-23 04:16 | -48.80534 | -73.44150 | 32621 ft | 455 kts | 198° |
| 2026-04-23 04:16 | -48.86845 | -73.45428 | 32611 ft | 454 kts | 198° |
| 2026-04-23 04:17 | -48.93117 | -73.46702 | 32612 ft | 454 kts | 198° |
| 2026-04-23 04:17 | -48.99352 | -73.47971 | 32605 ft | 455 kts | 198° |
| 2026-04-23 04:18 | -49.05655 | -73.49260 | 32591 ft | 454 kts | 198° |
| 2026-04-23 04:18 | -49.11943 | -73.50543 | 32590 ft | 456 kts | 198° |
| 2026-04-23 04:19 | -49.18198 | -73.51813 | 32580 ft | 456 kts | 198° |
| 2026-04-23 04:19 | -49.24474 | -73.53099 | 32592 ft | 456 kts | 198° |
| 2026-04-23 04:20 | -49.29664 | -73.54175 | 32580 ft | 456 kts | 198° |
| 2026-04-23 04:20 | -49.36037 | -73.55502 | 32574 ft | 456 kts | 198° |
| 2026-04-23 04:21 | -49.42330 | -73.56806 | 32577 ft | 456 kts | 198° |
| 2026-04-23 04:21 | -49.48624 | -73.58089 | 32577 ft | 456 kts | 198° |
| 2026-04-23 04:22 | -49.54869 | -73.59380 | 32583 ft | 456 kts | 198° |
| 2026-04-23 04:22 | -49.61196 | -73.60701 | 32573 ft | 456 kts | 198° |
| 2026-04-23 04:23 | -49.67491 | -73.62017 | 32573 ft | 456 kts | 198° |
| 2026-04-23 04:23 | -49.73821 | -73.63349 | 32561 ft | 456 kts | 198° |
| 2026-04-23 04:24 | -49.80124 | -73.64675 | 32558 ft | 457 kts | 199° |
| 2026-04-23 04:24 | -49.86429 | -73.66002 | 32564 ft | 457 kts | 198° |
| 2026-04-23 04:25 | -49.92734 | -73.67327 | 32548 ft | 456 kts | 199° |
| 2026-04-23 04:25 | -49.99070 | -73.68666 | 32551 ft | 457 kts | 198° |
| 2026-04-23 04:26 | -50.05357 | -73.70006 | 32546 ft | 456 kts | 198° |
| 2026-04-23 04:26 | -50.11618 | -73.71356 | 32549 ft | 457 kts | 198° |
| 2026-04-23 04:27 | -50.17960 | -73.72712 | 32555 ft | 457 kts | 198° |
| 2026-04-23 04:27 | -50.24255 | -73.74060 | 32542 ft | 463 kts | 199° |
| 2026-04-23 04:28 | -50.33950 | -73.75621 | 32523 ft | 483 kts | 186° |
| 2026-04-23 04:28 | -50.37364 | -73.74778 | 32519 ft | 500 kts | 174° |
| 2026-04-23 04:28 | -50.40685 | -73.72858 | 32511 ft | 516 kts | 161° |
| 2026-04-23 04:29 | -50.46946 | -73.67129 | 32511 ft | 523 kts | 156° |
| 2026-04-23 04:29 | -50.53202 | -73.61260 | 32509 ft | 524 kts | 156° |
| 2026-04-23 04:30 | -50.59476 | -73.55385 | 32485 ft | 524 kts | 156° |
| 2026-04-23 04:30 | -50.65752 | -73.49491 | 32484 ft | 525 kts | 156° |
| 2026-04-23 04:31 | -50.72029 | -73.43548 | 32483 ft | 526 kts | 156° |
| 2026-04-23 04:31 | -50.78302 | -73.37590 | 32483 ft | 525 kts | 155° |
| 2026-04-23 04:32 | -50.84461 | -73.31728 | 32471 ft | 515 kts | 155° |
| 2026-04-23 04:32 | -50.90596 | -73.25889 | 32462 ft | 513 kts | 155° |
| 2026-04-23 04:33 | -50.96698 | -73.20071 | 32458 ft | 512 kts | 155° |
| 2026-04-23 04:33 | -51.02785 | -73.14232 | 32442 ft | 511 kts | 155° |
| 2026-04-23 04:34 | -51.08868 | -73.08367 | 32441 ft | 511 kts | 155° |
| 2026-04-23 04:34 | -51.14957 | -73.02482 | 32435 ft | 511 kts | 154° |
| 2026-04-23 04:35 | -51.21026 | -72.96594 | 32428 ft | 511 kts | 154° |
| 2026-04-23 04:35 | -51.27088 | -72.90692 | 32427 ft | 510 kts | 154° |
| 2026-04-23 04:36 | -51.33144 | -72.84768 | 32426 ft | 509 kts | 153° |
| 2026-04-23 04:36 | -51.39180 | -72.78850 | 32421 ft | 508 kts | 153° |
| 2026-04-23 04:37 | -51.45210 | -72.72914 | 32421 ft | 508 kts | 153° |
| 2026-04-23 04:37 | -51.51271 | -72.66919 | 32203 ft | 509 kts | 153° |
| 2026-04-23 04:38 | -51.54291 | -72.63933 | 31951 ft | 510 kts | 153° |
| 2026-04-23 04:38 | -51.57317 | -72.60941 | 31686 ft | 512 kts | 153° |
| 2026-04-23 04:38 | -51.60369 | -72.57921 | 30792 ft | 519 kts | 154° |
| 2026-04-23 04:38 | -51.63474 | -72.54847 | 29807 ft | 528 kts | 154° |
| 2026-04-23 04:39 | -51.66606 | -72.51731 | 29069 ft | 528 kts | 154° |
| 2026-04-23 04:39 | -51.69708 | -72.48623 | 28399 ft | 525 kts | 154° |
| 2026-04-23 04:39 | -51.72782 | -72.45525 | 27738 ft | 514 kts | 153° |
| 2026-04-23 04:39 | -51.75662 | -72.42181 | 27183 ft | 504 kts | 148° |
| 2026-04-23 04:40 | -51.78433 | -72.38801 | 26613 ft | 493 kts | 148° |
| 2026-04-23 04:40 | -51.81136 | -72.35502 | 26063 ft | 482 kts | 148° |
| 2026-04-23 04:40 | -51.83786 | -72.32272 | 25529 ft | 472 kts | 149° |
| 2026-04-23 04:40 | -51.86378 | -72.29116 | 24997 ft | 462 kts | 149° |
| 2026-04-23 04:41 | -51.88942 | -72.25991 | 24492 ft | 459 kts | 149° |
| 2026-04-23 04:41 | -51.91475 | -72.22908 | 23985 ft | 456 kts | 149° |
| 2026-04-23 04:41 | -51.94007 | -72.19815 | 23500 ft | 452 kts | 149° |
| 2026-04-23 04:41 | -51.96508 | -72.16751 | 22999 ft | 449 kts | 149° |
| 2026-04-23 04:42 | -51.98961 | -72.13741 | 22493 ft | 446 kts | 149° |
| 2026-04-23 04:42 | -52.01494 | -72.10630 | 22036 ft | 443 kts | 149° |
| 2026-04-23 04:42 | -52.03947 | -72.07614 | 21602 ft | 440 kts | 149° |
| 2026-04-23 04:42 | -52.06342 | -72.04662 | 21188 ft | 437 kts | 149° |
| 2026-04-23 04:43 | -52.08780 | -72.01628 | 20766 ft | 435 kts | 148° |
| 2026-04-23 04:43 | -52.11122 | -71.98528 | 20363 ft | 434 kts | 146° |
| 2026-04-23 04:43 | -52.13375 | -71.95372 | 19970 ft | 432 kts | 144° |
| 2026-04-23 04:43 | -52.15621 | -71.92128 | 19553 ft | 430 kts | 143° |
| 2026-04-23 04:44 | -52.17875 | -71.88846 | 19143 ft | 428 kts | 143° |
| 2026-04-23 04:44 | -52.20089 | -71.85635 | 18729 ft | 425 kts | 144° |
| 2026-04-23 04:44 | -52.22275 | -71.82491 | 18315 ft | 423 kts | 144° |
| 2026-04-23 04:44 | -52.24510 | -71.79301 | 17900 ft | 420 kts | 144° |
| 2026-04-23 04:45 | -52.26713 | -71.76171 | 17450 ft | 418 kts | 144° |
| 2026-04-23 04:45 | -52.28903 | -71.73066 | 17011 ft | 415 kts | 144° |
| 2026-04-23 04:45 | -52.31079 | -71.69979 | 16591 ft | 412 kts | 144° |
| 2026-04-23 04:45 | -52.33233 | -71.66920 | 16161 ft | 408 kts | 144° |
| 2026-04-23 04:46 | -52.35368 | -71.63878 | 15747 ft | 405 kts | 144° |
| 2026-04-23 04:46 | -52.36799 | -71.61832 | 15458 ft | 403 kts | 143° |
| 2026-04-23 04:46 | -52.38903 | -71.58819 | 15037 ft | 401 kts | 143° |
| 2026-04-23 04:46 | -52.40996 | -71.55815 | 14625 ft | 398 kts | 143° |
| 2026-04-23 04:47 | -52.43071 | -71.52838 | 14214 ft | 395 kts | 143° |
| 2026-04-23 04:47 | -52.45111 | -71.49913 | 13799 ft | 393 kts | 143° |
| 2026-04-23 04:47 | -52.47162 | -71.46963 | 13368 ft | 391 kts | 143° |
| 2026-04-23 04:47 | -52.49203 | -71.44023 | 12944 ft | 390 kts | 143° |
| 2026-04-23 04:48 | -52.51233 | -71.41099 | 12502 ft | 387 kts | 143° |
| 2026-04-23 04:48 | -52.53246 | -71.38196 | 12094 ft | 384 kts | 143° |
| 2026-04-23 04:48 | -52.55250 | -71.35308 | 11665 ft | 382 kts | 143° |
| 2026-04-23 04:48 | -52.57242 | -71.32428 | 11238 ft | 380 kts | 143° |
| 2026-04-23 04:49 | -52.59242 | -71.29529 | 10816 ft | 377 kts | 143° |
| 2026-04-23 04:49 | -52.61197 | -71.26693 | 10549 ft | 370 kts | 143° |
| 2026-04-23 04:49 | -52.63127 | -71.23877 | 10464 ft | 363 kts | 143° |
| 2026-04-23 04:49 | -52.65001 | -71.21138 | 10237 ft | 357 kts | 143° |
| 2026-04-23 04:50 | -52.66832 | -71.18461 | 10073 ft | 347 kts | 143° |
| 2026-04-23 04:50 | -52.68619 | -71.15852 | 9903 ft | 338 kts | 144° |
| 2026-04-23 04:50 | -52.70373 | -71.13290 | 9770 ft | 335 kts | 144° |
| 2026-04-23 04:50 | -52.72114 | -71.10748 | 9637 ft | 334 kts | 144° |
| 2026-04-23 04:51 | -52.73853 | -71.08212 | 9327 ft | 335 kts | 144° |
| 2026-04-23 04:51 | -52.75598 | -71.05664 | 8961 ft | 333 kts | 144° |
| 2026-04-23 04:51 | -52.77332 | -71.03122 | 8508 ft | 333 kts | 144° |
| 2026-04-23 04:51 | -52.79049 | -71.00592 | 8184 ft | 328 kts | 144° |
| 2026-04-23 04:52 | -52.80747 | -70.98088 | 7587 ft | 327 kts | 144° |
| 2026-04-23 04:52 | -52.82438 | -70.95592 | 7083 ft | 323 kts | 144° |
| 2026-04-23 04:52 | -52.84196 | -70.93412 | 6689 ft | 310 kts | 158° |
| 2026-04-23 04:52 | -52.86115 | -70.91986 | 6292 ft | 296 kts | 172° |
| 2026-04-23 04:53 | -52.88077 | -70.91085 | 5789 ft | 291 kts | 175° |
| 2026-04-23 04:53 | -52.90024 | -70.90212 | 5285 ft | 288 kts | 175° |
| 2026-04-23 04:53 | -52.91949 | -70.89296 | 4757 ft | 287 kts | 174° |
| 2026-04-23 04:53 | -52.93863 | -70.88358 | 4265 ft | 286 kts | 173° |
| 2026-04-23 04:54 | -52.95754 | -70.87428 | 4063 ft | 279 kts | 174° |
| 2026-04-23 04:54 | -52.97582 | -70.86623 | 3980 ft | 264 kts | 177° |
| 2026-04-23 04:54 | -52.99361 | -70.85896 | 3990 ft | 258 kts | 178° |
| 2026-04-23 04:54 | -53.01073 | -70.85196 | 4020 ft | 245 kts | 177° |
| 2026-04-23 04:55 | -53.02632 | -70.83967 | 3981 ft | 254 kts | 155° |
| 2026-04-23 04:55 | -53.04118 | -70.82425 | 3909 ft | 248 kts | 160° |
| 2026-04-23 04:55 | -53.05618 | -70.81024 | 3561 ft | 247 kts | 161° |
| 2026-04-23 04:55 | -53.07120 | -70.79652 | 3237 ft | 245 kts | 160° |
| 2026-04-23 04:56 | -53.08611 | -70.78295 | 3013 ft | 244 kts | 160° |
| 2026-04-23 04:56 | -53.10107 | -70.76949 | 2985 ft | 244 kts | 161° |
| 2026-04-23 04:56 | -53.11610 | -70.75634 | 2993 ft | 244 kts | 161° |
| 2026-04-23 04:56 | -53.13121 | -70.74323 | 3004 ft | 244 kts | 160° |
| 2026-04-23 04:57 | -53.14412 | -70.72416 | 3016 ft | 258 kts | 123° |
| 2026-04-23 04:57 | -53.14837 | -70.69541 | 3044 ft | 257 kts | 80° |
| 2026-04-23 04:57 | -53.14215 | -70.66895 | 3090 ft | 240 kts | 41° |
| 2026-04-23 04:57 | -53.13057 | -70.64946 | 3117 ft | 236 kts | 33° |
| 2026-04-23 04:58 | -53.11872 | -70.63043 | 3108 ft | 237 kts | 34° |
| 2026-04-23 04:58 | -53.10669 | -70.61189 | 3101 ft | 233 kts | 29° |
| 2026-04-23 04:58 | -53.09415 | -70.59615 | 3098 ft | 214 kts | 22° |
| 2026-04-23 04:58 | -53.08223 | -70.58467 | 3089 ft | 188 kts | 13° |
| 2026-04-23 04:59 | -53.07056 | -70.57658 | 3080 ft | 172 kts | 4° |
| 2026-04-23 04:59 | -53.05931 | -70.57197 | 3125 ft | 162 kts | 354° |
| 2026-04-23 04:59 | -53.04852 | -70.56886 | 3205 ft | 152 kts | 353° |
| 2026-04-23 04:59 | -53.03829 | -70.56655 | 3169 ft | 144 kts | 347° |
| 2026-04-23 05:00 | -53.02858 | -70.56676 | 3062 ft | 137 kts | 339° |
| 2026-04-23 05:00 | -53.01947 | -70.56935 | 2995 ft | 133 kts | 330° |
| 2026-04-23 05:00 | -53.01103 | -70.57534 | 3098 ft | 133 kts | 316° |
| 2026-04-23 05:00 | -53.00314 | -70.58393 | 3214 ft | 138 kts | 314° |
| 2026-04-23 05:01 | -52.99729 | -70.59598 | 3141 ft | 137 kts | 284° |
| 2026-04-23 05:01 | -52.99876 | -70.61216 | 2939 ft | 148 kts | 259° |
| 2026-04-23 05:01 | -53.00002 | -70.62853 | 2606 ft | 142 kts | 277° |
| 2026-04-23 05:01 | -52.99870 | -70.64487 | 2233 ft | 143 kts | 278° |
| 2026-04-23 05:02 | -52.99863 | -70.66144 | 2035 ft | 143 kts | 270° |
| 2026-04-23 05:02 | -52.99854 | -70.67789 | 1952 ft | 142 kts | 276° |
| 2026-04-23 05:02 | -52.99855 | -70.69433 | 1877 ft | 143 kts | 271° |
| 2026-04-23 05:02 | -52.99894 | -70.71079 | 1707 ft | 142 kts | 272° |
| 2026-04-23 05:03 | -52.99913 | -70.72714 | 1463 ft | 142 kts | 273° |
| 2026-04-23 05:03 | -52.99936 | -70.74359 | 1218 ft | 143 kts | 271° |
| 2026-04-23 05:03 | -52.99947 | -70.76002 | 1009 ft | 141 kts | 275° |
| 2026-04-23 05:03 | -52.99993 | -70.77664 | 810 ft | 144 kts | 270° |
| 2026-04-23 05:04 | -53.00043 | -70.79320 | 652 ft | 144 kts | 275° |
| 2026-04-23 05:04 | -53.00035 | -70.80977 | 427 ft | 143 kts | 276° |
| 2026-04-23 05:04 | -53.00052 | -70.82644 | 248 ft | 145 kts | 274° |
| 2026-04-23 05:04 | -53.00093 | -70.84385 | 640 ft | 151 kts | 274° |
| 2026-04-23 05:05 | -53.00112 | -70.86099 | 1602 ft | 146 kts | 273° |
| 2026-04-23 05:05 | -53.00135 | -70.87810 | 2122 ft | 153 kts | 272° |
| 2026-04-23 05:05 | -53.00158 | -70.89711 | 2242 ft | 176 kts | 274° |
| 2026-04-23 05:05 | -53.00006 | -70.91829 | 2545 ft | 193 kts | 284° |
| 2026-04-23 05:06 | -52.99556 | -70.93989 | 2935 ft | 196 kts | 294° |
| 2026-04-23 05:06 | -52.98833 | -70.95890 | 2984 ft | 195 kts | 305° |
| 2026-04-23 05:06 | -52.97856 | -70.97483 | 2990 ft | 198 kts | 316° |
| 2026-04-23 05:06 | -52.96663 | -70.98691 | 2991 ft | 204 kts | 327° |
| 2026-04-23 05:07 | -52.95326 | -70.99564 | 2993 ft | 206 kts | 330° |
| 2026-04-23 05:07 | -52.94005 | -71.00401 | 3170 ft | 206 kts | 329° |
| 2026-04-23 05:07 | -52.92798 | -71.01553 | 3439 ft | 196 kts | 311° |
| 2026-04-23 05:07 | -52.91937 | -71.03248 | 3694 ft | 192 kts | 302° |
| 2026-04-23 05:08 | -52.91106 | -71.05015 | 3933 ft | 192 kts | 303° |
| 2026-04-23 05:08 | -52.90272 | -71.06736 | 3982 ft | 192 kts | 304° |
| 2026-04-23 05:08 | -52.89187 | -71.08099 | 3990 ft | 206 kts | 330° |
| 2026-04-23 05:08 | -52.87686 | -71.08213 | 3991 ft | 236 kts | 6° |
| 2026-04-23 05:09 | -52.86267 | -71.06569 | 3997 ft | 269 kts | 45° |
| 2026-04-23 05:09 | -52.85397 | -71.03670 | 4001 ft | 284 kts | 66° |
| 2026-04-23 05:09 | -52.84905 | -71.00423 | 4017 ft | 302 kts | 75° |
| 2026-04-23 05:09 | -52.84537 | -70.96930 | 3994 ft | 312 kts | 77° |
| 2026-04-23 05:10 | -52.84190 | -70.93366 | 3994 ft | 314 kts | 77° |
| 2026-04-23 05:10 | -52.83913 | -70.89800 | 3996 ft | 312 kts | 83° |
| 2026-04-23 05:10 | -52.83820 | -70.86225 | 3996 ft | 312 kts | 88° |
| 2026-04-23 05:10 | -52.83920 | -70.82635 | 3996 ft | 312 kts | 95° |
| 2026-04-23 05:11 | -52.84270 | -70.79093 | 4000 ft | 312 kts | 104° |
| 2026-04-23 05:11 | -52.84898 | -70.75663 | 3998 ft | 311 kts | 114° |
| 2026-04-23 05:11 | -52.85788 | -70.72424 | 3990 ft | 303 kts | 122° |
| 2026-04-23 05:11 | -52.86862 | -70.69538 | 3995 ft | 289 kts | 131° |
| 2026-04-23 05:12 | -52.88100 | -70.66972 | 3806 ft | 282 kts | 139° |
| 2026-04-23 05:12 | -52.89486 | -70.64730 | 3517 ft | 275 kts | 147° |
| 2026-04-23 05:12 | -52.90980 | -70.62813 | 3212 ft | 269 kts | 154° |
| 2026-04-23 05:12 | -52.92528 | -70.61232 | 3036 ft | 254 kts | 161° |
| 2026-04-23 05:13 | -52.94062 | -70.60059 | 2903 ft | 230 kts | 173° |
| 2026-04-23 05:13 | -52.95075 | -70.59732 | 2796 ft | 208 kts | 188° |
| 2026-04-23 05:13 | -52.96438 | -70.59900 | 2769 ft | 189 kts | 206° |
| 2026-04-23 05:14 | -52.98540 | -70.61777 | 2635 ft | 161 kts | 235° |
| 2026-04-23 05:14 | -52.99213 | -70.63157 | 2496 ft | 146 kts | 248° |
| 2026-04-23 05:14 | -52.99629 | -70.64641 | 2368 ft | 140 kts | 259° |
| 2026-04-23 05:14 | -52.99815 | -70.66209 | 2192 ft | 139 kts | 270° |
| 2026-04-23 05:15 | -52.99842 | -70.67830 | 2010 ft | 141 kts | 272° |
| 2026-04-23 05:15 | -52.99866 | -70.69454 | 1832 ft | 141 kts | 272° |
| 2026-04-23 05:15 | -52.99890 | -70.71072 | 1631 ft | 141 kts | 272° |
| 2026-04-23 05:15 | -52.99914 | -70.72726 | 1428 ft | 141 kts | 272° |
| 2026-04-23 05:16 | -52.99937 | -70.74360 | 1225 ft | 142 kts | 272° |
| 2026-04-23 05:16 | -52.99960 | -70.76001 | 1026 ft | 142 kts | 273° |
| 2026-04-23 05:16 | -52.99983 | -70.77625 | 829 ft | 143 kts | 272° |
| 2026-04-23 05:16 | -53.00006 | -70.79296 | 630 ft | 143 kts | 275° |
| 2026-04-23 05:17 | -53.00029 | -70.80948 | 443 ft | 144 kts | 275° |
| 2026-04-23 05:17 | -53.00056 | -70.82581 | 258 ft | 142 kts | 275° |
| 2026-04-23 05:17 | -53.00072 | -70.84215 | 152 ft | 132 kts | 273° |
| 2026-04-23 05:17 | -53.00103 | -70.85627 | 166 ft | 125 kts | 276° |
| 2026-04-23 05:18 | -53.00104 | -70.87218 | 670 ft | 143 kts | 276° |
| 2026-04-23 05:18 | -53.00113 | -70.88833 | 1611 ft | 138 kts | 275° |
| 2026-04-23 05:18 | -53.00096 | -70.90428 | 2101 ft | 142 kts | 276° |
| 2026-04-23 05:18 | -52.99929 | -70.92176 | 2216 ft | 164 kts | 284° |
| 2026-04-23 05:19 | -52.99500 | -70.94116 | 2391 ft | 187 kts | 295° |
| 2026-04-23 05:19 | -52.98767 | -70.95990 | 2862 ft | 199 kts | 305° |
| 2026-04-23 05:19 | -52.97778 | -70.97592 | 2972 ft | 200 kts | 316° |
| 2026-04-23 05:19 | -52.96573 | -70.98775 | 2988 ft | 204 kts | 328° |
| 2026-04-23 05:20 | -52.95242 | -70.99634 | 2990 ft | 206 kts | 330° |
| 2026-04-23 05:20 | -52.93904 | -71.00482 | 2990 ft | 205 kts | 329° |
| 2026-04-23 05:20 | -52.92721 | -71.01663 | 2994 ft | 195 kts | 310° |
| 2026-04-23 05:20 | -52.91909 | -71.03406 | 2995 ft | 191 kts | 301° |
| 2026-04-23 05:21 | -52.90884 | -71.04841 | 2992 ft | 203 kts | 329° |
| 2026-04-23 05:21 | -52.89422 | -71.05072 | 2991 ft | 228 kts | 4° |
| 2026-04-23 05:21 | -52.87999 | -71.03562 | 2997 ft | 258 kts | 41° |
| 2026-04-23 05:21 | -52.86951 | -71.01140 | 2995 ft | 266 kts | 50° |
| 2026-04-23 05:22 | -52.85994 | -70.98387 | 3005 ft | 285 kts | 54° |
| 2026-04-23 05:22 | -52.85112 | -70.95383 | 2990 ft | 297 kts | 66° |
| 2026-04-23 05:22 | -52.84775 | -70.91963 | 2993 ft | 305 kts | 89° |
| 2026-04-23 05:22 | -52.85140 | -70.88519 | 2998 ft | 307 kts | 109° |
| 2026-04-23 05:23 | -52.85789 | -70.85132 | 2993 ft | 308 kts | 108° |
| 2026-04-23 05:23 | -52.86437 | -70.81746 | 2994 ft | 308 kts | 108° |
| 2026-04-23 05:23 | -52.87081 | -70.78366 | 2995 ft | 308 kts | 108° |
| 2026-04-23 05:23 | -52.87721 | -70.74990 | 2995 ft | 307 kts | 108° |
| 2026-04-23 05:24 | -52.88355 | -70.71621 | 2995 ft | 307 kts | 108° |
| 2026-04-23 05:24 | -52.88984 | -70.68267 | 2986 ft | 298 kts | 108° |
| 2026-04-23 05:24 | -52.89579 | -70.65069 | 2989 ft | 284 kts | 108° |
| 2026-04-23 05:24 | -52.90222 | -70.61987 | 2994 ft | 281 kts | 119° |
| 2026-04-23 05:25 | -52.91278 | -70.59383 | 3017 ft | 262 kts | 139° |
| 2026-04-23 05:25 | -52.92635 | -70.57518 | 2994 ft | 246 kts | 158° |
| 2026-04-23 05:25 | -52.94136 | -70.56399 | 2996 ft | 234 kts | 174° |
| 2026-04-23 05:25 | -52.95712 | -70.55947 | 2996 ft | 222 kts | 189° |
| 2026-04-23 05:26 | -52.97219 | -70.55979 | 3000 ft | 204 kts | 202° |
| 2026-04-23 05:26 | -52.98405 | -70.56705 | 2998 ft | 163 kts | 226° |
| 2026-04-23 05:26 | -52.99177 | -70.57878 | 2995 ft | 146 kts | 244° |
| 2026-04-23 05:26 | -52.99622 | -70.59330 | 2930 ft | 139 kts | 261° |
| 2026-04-23 05:27 | -52.99741 | -70.60914 | 2815 ft | 141 kts | 272° |
| 2026-04-23 05:27 | -52.99765 | -70.62554 | 2635 ft | 143 kts | 272° |
| 2026-04-23 05:27 | -52.99790 | -70.64205 | 2445 ft | 143 kts | 272° |
| 2026-04-23 05:27 | -52.99814 | -70.65849 | 2251 ft | 142 kts | 272° |
| 2026-04-23 05:28 | -52.99838 | -70.67487 | 2055 ft | 141 kts | 272° |
| 2026-04-23 05:28 | -52.99862 | -70.69113 | 1881 ft | 141 kts | 272° |
| 2026-04-23 05:28 | -52.99886 | -70.70735 | 1672 ft | 140 kts | 272° |
| 2026-04-23 05:28 | -52.99909 | -70.72355 | 1475 ft | 140 kts | 272° |
| 2026-04-23 05:29 | -52.99932 | -70.73980 | 1273 ft | 141 kts | 271° |
| 2026-04-23 05:29 | -52.99955 | -70.75610 | 1071 ft | 141 kts | 272° |
| 2026-04-23 05:29 | -52.99978 | -70.77246 | 874 ft | 142 kts | 273° |
| 2026-04-23 05:29 | -53.00000 | -70.78893 | 679 ft | 143 kts | 274° |
| 2026-04-23 05:30 | -53.00023 | -70.80541 | 484 ft | 143 kts | 275° |
| 2026-04-23 05:30 | -53.00045 | -70.82189 | 296 ft | 141 kts | 275° |
| 2026-04-23 05:30 | -53.00071 | -70.83797 | 153 ft | 133 kts | 274° |
| 2026-04-23 05:30 | -53.00085 | -70.85078 | 142 ft | 81 kts | 268° |
| 2026-04-23 05:31 | -53.00093 | -70.85680 | 141 ft | 31 kts | 269° |
| 2026-04-23 05:31 | -53.00096 | -70.85945 | 143 ft | 20 kts | 270° |
| 2026-04-23 05:31 | -53.00100 | -70.86159 | 142 ft | 17 kts | 268° |
| 2026-04-23 05:31 | -53.00102 | -70.86307 | 144 ft | 8 kts | 265° |
| 2026-04-23 05:32 | -53.00132 | -70.86317 | 142 ft | 6 kts | 140° |
| 2026-04-23 05:32 | -53.00183 | -70.86246 | 141 ft | 11 kts | 140° |
| 2026-04-23 05:32 | -53.00239 | -70.86166 | 143 ft | 10 kts | 138° |
| 2026-04-23 05:32 | -53.00270 | -70.86064 | 143 ft | 10 kts | 92° |
| 2026-04-23 05:33 | -53.00269 | -70.85953 | 142 ft | 9 kts | 88° |
| 2026-04-23 05:33 | -53.00267 | -70.85848 | 142 ft | 10 kts | 88° |
| 2026-04-23 05:33 | -53.00264 | -70.85699 | 142 ft | 14 kts | 89° |
| 2026-04-23 05:33 | -53.00263 | -70.85547 | 142 ft | 12 kts | 89° |
| 2026-04-23 05:34 | -53.00261 | -70.85416 | 142 ft | 11 kts | 89° |
| 2026-04-23 05:34 | -53.00260 | -70.85297 | 142 ft | 11 kts | 88° |
| 2026-04-23 05:34 | -53.00257 | -70.85138 | 142 ft | 17 kts | 88° |
| 2026-04-23 05:34 | -53.00253 | -70.84940 | 143 ft | 16 kts | 88° |
| 2026-04-23 05:35 | -53.00265 | -70.84767 | 142 ft | 13 kts | 117° |
| 2026-04-23 05:35 | -53.00325 | -70.84684 | 142 ft | 10 kts | 147° |
| 2026-04-23 05:35 | -53.00372 | -70.84629 | 142 ft | 7 kts | 131° |
| 2026-04-23 05:35 | -53.00381 | -70.84549 | 142 ft | 8 kts | 92° |
| 2026-04-23 05:36 | -53.00381 | -70.84450 | 142 ft | 7 kts | 88° |
| 2026-04-23 05:36 | -53.00380 | -70.84385 | 142 ft | 4 kts | 92° |
| 2026-04-23 05:36 | -53.00402 | -70.84367 | 141 ft | 6 kts | 168° |
| 2026-04-23 05:36 | -53.00428 | -70.84365 | 140 ft | 5 kts | 178° |
| 2026-04-23 05:37 | -53.00444 | -70.84364 | 141 ft | 0 kts | 178° |